• Join FlightAware (Why Join?)
  • Login
  • US Flag 
01:19PM EST


 

Airport Tracker/Info


-or-


 

Live Flight TrackerFlight Track Log ✈ PDT4314 ✈ 05-Sep-2013 ✈ KPHL - KBGM

Flight Track Log - Related Links

Times and Time Zones

All times are in EDT time to prevent confusion due to time zone crossing. See the PDT4314 flight status page for this flight to view local times or setup timezone preferences in your user account.

Time Position Orientation Groundspeed Altitude Reporting Facility
EDT Latitude Longitude Course Direction KTS MPH feet Rate Location/Type
04:51PM 39.9000 -75.2333 323° Northwest 110 127 500  Level Philadelphia TRACON
04:52PM 39.9167 -75.2833 294° West 137 158 2,300 1,440 Climbing Philadelphia TRACON
04:53PM 39.9167 -75.3333 270° West 134 154 3,900 1,440 Climbing Philadelphia TRACON
04:54PM 40.0193 -75.3693 323° Northwest  Level FlightAware Approximate
04:54PM 39.9128 -75.3853 264° West 142 163 5,300  Level New York Center
04:55PM 40.0699 -75.4183 339° North  Level FlightAware Approximate
04:55PM 39.9319 -75.4244 303° West 134 154 6,700  Level New York Center
04:56PM 40.1170 -75.4670 323° Northwest  Level FlightAware Approximate
04:56PM 39.9494 -75.4608 302° West 134 154 7,900  Level New York Center
04:57PM 39.9950 -75.4667 354° North 134 154 9,400 1,020 Climbing New York Center
04:58PM 40.0339 -75.4828 342° North 148 170 10,000 600 Climbing New York Center
04:59PM 40.0856 -75.4997 346° North 165 190 10,600 720 Climbing New York Center
05:00PM 40.1244 -75.5133 345° North 164 189 11,500 660 Climbing New York Center
05:01PM 40.1739 -75.5303 345° North 159 183 12,000 240 Climbing New York Center
05:02PM 40.2231 -75.5528 341° North 178 205 12,000  Level New York Center
05:03PM 40.2622 -75.6125 311° West 189 217 12,000  Level New York Center
05:04PM 40.2953 -75.6719 306° West 200 230 12,000  Level New York Center
05:05PM 40.3347 -75.7239 315° West 205 236 12,000  Level New York Center
05:06PM 40.3719 -75.7783 312° West 205 236 12,000  Level New York Center
05:07PM 40.4094 -75.8300 314° West 205 236 12,000 360 Level New York Center
05:08PM 40.4439 -75.8981 304° West 205 236 12,800 840 Climbing New York Center
05:09PM 40.4714 -75.9411 310° West 187 215 13,700 600 Climbing New York Center
05:10PM 40.5022 -75.9953 307° West 176 203 14,000 120 Climbing New York Center
05:11PM 40.5314 -76.0439 308° West 183 211 14,000  Level New York Center
05:12PM 40.5664 -76.0983 310° West 188 216 14,000  Level New York Center
05:13PM 40.6078 -76.1536 315° West 193 222 14,000  Level New York Center
05:14PM 40.6406 -76.2108 307° West 198 228 14,000  Level New York Center
05:15PM 40.6714 -76.2625 308° West 198 228 14,000  Level New York Center
05:16PM 40.7303 -76.2536 North 190 219 14,000  Level New York Center
05:17PM 40.7972 -76.2481 North 211 243 14,000  Level New York Center
05:18PM 40.8556 -76.2444 North 217 250 14,000 -60 Level New York Center
05:19PM 40.9167 -76.2328 North 217 250 13,900 -60 Descending New York Center
05:20PM 40.9711 -76.2261 North 217 250 13,900  Level New York Center
05:21PM 41.0297 -76.2228 North 217 250 13,900  Level New York Center
05:22PM 41.0922 -76.2194 North 212 244 13,900  Level New York Center
05:23PM 41.1511 -76.2103 North 212 244 13,900  Level New York Center
05:24PM 41.2094 -76.2094 North 212 244 13,900  Level New York Center
05:25PM 41.2614 -76.2083 North 212 244 13,900  Level New York Center
05:26PM 41.3181 -76.2017 North 212 244 13,900  Level New York Center
05:27PM 41.3828 -76.1986 North 212 244 13,900  Level New York Center
05:28PM 41.4411 -76.1978 North 212 244 13,900  Level New York Center
05:29PM 41.5000 -76.1889 North 212 244 13,900 -360 Level New York Center
05:30PM 41.5564 -76.1850 North 220 253 13,200 -840 Descending New York Center
05:31PM 41.6250 -76.1878 358° North 232 267 12,300 -1,080 Descending New York Center
05:32PM 41.7044 -76.1775 North 252 290 11,100 -1,140 Descending New York Center
05:33PM 41.7733 -76.1719 North 257 296 10,100 -1,020 Descending New York Center
05:34PM 41.8447 -76.1639 North 257 296 9,100 -1,140 Descending New York Center
05:35PM 41.9114 -76.1583 North 257 296 7,900 -1,200 Descending New York Center
05:36PM 41.9803 -76.1553 North 257 296 6,800 -1,260 Descending New York Center
05:37PM 42.0394 -76.0906 39° Northeast 243 280 5,400 -1,200 Descending New York Center
05:38PM 42.0897 -76.0358 39° Northeast 236 272 4,400 -900 Descending New York Center
05:39PM 42.1314 -75.9917 38° Northeast 217 250 3,700 -900 Descending New York Center
05:40PM 42.1619 -75.9547 42° Northeast 175 201 2,700 -780 Descending New York Center
05:41PM 42.1850 -75.9511 North 115 132 2,200 -540 Descending New York Center